createdAt,value
2023-05-15T00:00:07.949Z,13.3
2023-05-15T00:00:37.953Z,13.29
2023-05-15T00:01:07.951Z,13.3
2023-05-15T00:01:37.956Z,13.35
2023-05-15T00:02:07.985Z,13.38
2023-05-15T00:02:38.018Z,13.42
2023-05-15T00:03:08.037Z,13.44
2023-05-15T00:03:38.186Z,13.44
2023-05-15T00:04:07.955Z,13.43
2023-05-15T00:04:37.975Z,13.41
2023-05-15T00:05:08.012Z,13.38
2023-05-15T00:05:37.951Z,13.36
2023-05-15T00:06:07.956Z,13.36
2023-05-15T00:06:37.955Z,13.36
2023-05-15T00:07:07.956Z,13.37
2023-05-15T00:07:37.951Z,13.38
2023-05-15T00:08:07.956Z,13.39
2023-05-15T00:08:37.951Z,13.41
2023-05-15T00:09:07.960Z,13.4
2023-05-15T00:09:37.952Z,13.38
2023-05-15T00:10:07.956Z,13.39
2023-05-15T00:10:38.314Z,13.39
2023-05-15T00:11:07.971Z,13.39
2023-05-15T00:11:37.950Z,13.38
2023-05-15T00:12:07.951Z,13.38
2023-05-15T00:12:37.951Z,13.37
2023-05-15T00:13:07.963Z,13.39
2023-05-15T00:13:37.951Z,13.4
2023-05-15T00:14:07.956Z,13.4
2023-05-15T00:14:37.958Z,13.38
2023-05-15T00:15:07.954Z,13.37
2023-05-15T00:15:37.950Z,13.4
2023-05-15T00:16:08.001Z,13.41
2023-05-15T00:16:38.005Z,13.4
2023-05-15T00:17:07.955Z,13.4
2023-05-15T00:17:38.029Z,13.36
2023-05-15T00:18:08.000Z,13.33
2023-05-15T00:18:37.988Z,13.31
2023-05-15T00:19:08.002Z,13.3
2023-05-15T00:19:37.957Z,13.29
2023-05-15T00:20:07.961Z,13.26
2023-05-15T00:20:37.962Z,13.25
2023-05-15T00:21:07.951Z,13.28
2023-05-15T00:21:37.973Z,13.3
2023-05-15T00:22:07.955Z,13.3
2023-05-15T00:22:37.960Z,13.31
2023-05-15T00:23:07.964Z,13.3
2023-05-15T00:23:37.956Z,13.28
2023-05-15T00:24:07.959Z,13.27
2023-05-15T00:24:37.955Z,13.23
2023-05-15T00:25:07.957Z,13.19
2023-05-15T00:25:37.964Z,13.16
2023-05-15T00:26:07.969Z,13.13
2023-05-15T00:26:37.971Z,13.11
2023-05-15T00:27:07.962Z,13.1
2023-05-15T00:27:37.958Z,13.1
2023-05-15T00:28:07.970Z,13.1
2023-05-15T00:28:37.955Z,13.1
2023-05-15T00:29:07.958Z,13.1
2023-05-15T00:29:37.957Z,13.09
2023-05-15T00:30:07.979Z,13.08
2023-05-15T00:30:37.981Z,13.07
2023-05-15T00:31:07.968Z,13.07
2023-05-15T00:31:38.035Z,13.04
2023-05-15T00:32:07.960Z,13.06
2023-05-15T00:32:37.984Z,13.07
2023-05-15T00:33:07.960Z,13.1
2023-05-15T00:33:37.966Z,13.11
2023-05-15T00:34:07.960Z,13.13
2023-05-15T00:34:37.975Z,13.15
2023-05-15T00:35:07.967Z,13.16
2023-05-15T00:35:37.969Z,13.14
2023-05-15T00:36:07.981Z,13.16
2023-05-15T00:36:37.968Z,13.12
2023-05-15T00:37:07.968Z,13.06
2023-05-15T00:37:37.963Z,13
2023-05-15T00:38:07.963Z,12.96
2023-05-15T00:38:37.966Z,12.93
2023-05-15T00:39:07.964Z,12.92
2023-05-15T00:39:37.969Z,12.89
2023-05-15T00:40:07.979Z,12.85
2023-05-15T00:40:37.964Z,12.82
2023-05-15T00:41:07.963Z,12.83
2023-05-15T00:41:37.965Z,12.85
2023-05-15T00:42:07.972Z,12.89
2023-05-15T00:42:37.972Z,12.92
2023-05-15T00:43:07.972Z,12.94
2023-05-15T00:43:37.969Z,12.95
2023-05-15T00:44:07.963Z,12.91
2023-05-15T00:44:37.965Z,12.88
2023-05-15T00:45:07.969Z,12.85
2023-05-15T00:45:37.968Z,12.82
2023-05-15T00:46:07.964Z,12.78
2023-05-15T00:46:38.021Z,12.75
2023-05-15T00:47:08.027Z,12.74
2023-05-15T00:47:37.979Z,12.72
2023-05-15T00:48:07.964Z,12.7
2023-05-15T00:48:37.972Z,12.68
2023-05-15T00:49:07.969Z,12.66
2023-05-15T00:49:37.984Z,12.65
2023-05-15T00:50:07.980Z,12.64
2023-05-15T00:50:37.974Z,12.63
2023-05-15T00:51:07.963Z,12.62
2023-05-15T00:51:37.973Z,12.59
2023-05-15T00:52:07.965Z,12.57
2023-05-15T00:52:37.981Z,12.58
2023-05-15T00:53:07.973Z,12.56
2023-05-15T00:53:38.021Z,12.57
2023-05-15T00:54:08.069Z,12.59
2023-05-15T00:54:37.993Z,12.61
2023-05-15T00:55:08.004Z,12.64
2023-05-15T00:55:37.981Z,12.65
2023-05-15T00:56:07.978Z,12.64
2023-05-15T00:56:37.993Z,12.65
2023-05-15T00:57:07.976Z,12.66
2023-05-15T00:57:37.969Z,12.68
2023-05-15T00:58:07.984Z,12.69
2023-05-15T00:58:37.975Z,12.7
2023-05-15T00:59:07.972Z,12.69
2023-05-15T00:59:37.975Z,12.69
2023-05-15T01:00:07.995Z,12.69
2023-05-15T01:00:38.002Z,12.68
2023-05-15T01:01:08.700Z,12.67
2023-05-15T01:01:38.017Z,12.66
2023-05-15T01:02:07.996Z,12.69
2023-05-15T01:02:38.020Z,12.71
2023-05-15T01:03:08.134Z,12.73
2023-05-15T01:03:38.049Z,12.73
2023-05-15T01:04:07.977Z,12.73
2023-05-15T01:04:37.978Z,12.74
2023-05-15T01:05:07.974Z,12.75
2023-05-15T01:05:37.973Z,12.74
2023-05-15T01:06:07.970Z,12.73
2023-05-15T01:06:37.974Z,12.72
2023-05-15T01:07:07.972Z,12.73
2023-05-15T01:07:37.975Z,12.72
2023-05-15T01:08:07.974Z,12.71
2023-05-15T01:08:37.973Z,12.69
2023-05-15T01:09:07.969Z,12.69
2023-05-15T01:09:37.975Z,12.69
2023-05-15T01:10:07.984Z,12.69
2023-05-15T01:10:37.986Z,12.66
2023-05-15T01:11:07.972Z,12.67
2023-05-15T01:11:37.971Z,12.66
2023-05-15T01:12:07.989Z,12.64
2023-05-15T01:12:37.979Z,12.64
2023-05-15T01:13:07.980Z,12.64
2023-05-15T01:13:37.979Z,12.66
2023-05-15T01:14:07.983Z,12.68
2023-05-15T01:14:37.972Z,12.69
2023-05-15T01:15:07.972Z,12.7
2023-05-15T01:15:37.971Z,12.72
2023-05-15T01:16:07.977Z,12.72
2023-05-15T01:16:37.971Z,12.73
2023-05-15T01:17:07.979Z,12.73
2023-05-15T01:17:37.998Z,12.73
2023-05-15T01:18:08.030Z,12.73
2023-05-15T01:18:38.082Z,12.74
2023-05-15T01:19:08.043Z,12.77
2023-05-15T01:19:38.124Z,12.85
2023-05-15T01:20:07.992Z,12.91
2023-05-15T01:20:37.968Z,12.95
2023-05-15T01:21:07.971Z,12.99
2023-05-15T01:21:37.973Z,13
2023-05-15T01:22:07.980Z,12.98
2023-05-15T01:22:37.975Z,12.96
2023-05-15T01:23:07.981Z,12.94
2023-05-15T01:23:37.978Z,12.93
2023-05-15T01:24:07.978Z,12.92
2023-05-15T01:24:37.978Z,12.94
2023-05-15T01:25:07.981Z,12.97
2023-05-15T01:25:37.972Z,12.98
2023-05-15T01:26:07.972Z,12.98
2023-05-15T01:26:37.991Z,12.99
2023-05-15T01:27:07.979Z,13.02
2023-05-15T01:27:37.978Z,13.04
2023-05-15T01:28:07.979Z,13.06
2023-05-15T01:28:37.977Z,13.06
2023-05-15T01:29:07.986Z,13.09
2023-05-15T01:29:37.972Z,13.12
2023-05-15T01:30:08.005Z,13.14
2023-05-15T01:30:37.972Z,13.14
2023-05-15T01:31:07.972Z,13.15
2023-05-15T01:31:38.037Z,13.15
2023-05-15T01:32:07.995Z,13.16
2023-05-15T01:32:38.002Z,13.16
2023-05-15T01:33:07.996Z,13.17
2023-05-15T01:33:37.978Z,13.18
2023-05-15T01:34:07.978Z,13.19
2023-05-15T01:34:37.972Z,13.19
2023-05-15T01:35:08.007Z,13.19
2023-05-15T01:35:37.975Z,13.18
2023-05-15T01:36:07.978Z,13.16
2023-05-15T01:36:37.984Z,13.18
2023-05-15T01:37:07.981Z,13.19
2023-05-15T01:37:37.986Z,13.22
2023-05-15T01:38:07.985Z,13.23
2023-05-15T01:38:37.992Z,13.23
2023-05-15T01:39:07.979Z,13.26
2023-05-15T01:39:37.979Z,13.29
2023-05-15T01:40:07.975Z,13.32
2023-05-15T01:40:37.984Z,13.35
2023-05-15T01:41:07.972Z,13.36
2023-05-15T01:41:37.978Z,13.36
2023-05-15T01:42:07.988Z,13.35
2023-05-15T01:42:37.979Z,13.34
2023-05-15T01:43:07.971Z,13.34
2023-05-15T01:43:37.977Z,13.33
2023-05-15T01:44:07.980Z,13.32
2023-05-15T01:44:37.979Z,13.31
2023-05-15T01:45:07.983Z,13.31
2023-05-15T01:45:37.972Z,13.31
2023-05-15T01:46:08.022Z,13.33
2023-05-15T01:46:37.994Z,13.34
2023-05-15T01:47:08.012Z,13.35
2023-05-15T01:47:38.060Z,13.36
2023-05-15T01:48:08.051Z,13.39
2023-05-15T01:48:37.995Z,13.39
2023-05-15T01:49:07.982Z,13.4
2023-05-15T01:49:37.979Z,13.4
2023-05-15T01:50:07.990Z,13.41
2023-05-15T01:50:37.998Z,13.43
2023-05-15T01:51:07.984Z,13.47
2023-05-15T01:51:37.984Z,13.51
2023-05-15T01:52:07.981Z,13.54
2023-05-15T01:52:37.978Z,13.55
2023-05-15T01:53:07.982Z,13.54
2023-05-15T01:53:37.981Z,13.53
2023-05-15T01:54:07.976Z,13.56
2023-05-15T01:54:37.980Z,13.58
2023-05-15T01:55:07.985Z,13.58
2023-05-15T01:55:37.978Z,13.58
2023-05-15T01:56:07.983Z,13.61
2023-05-15T01:56:37.988Z,13.62
2023-05-15T01:57:07.983Z,13.63
2023-05-15T01:57:37.981Z,13.64
2023-05-15T01:58:07.979Z,13.65
2023-05-15T01:58:37.985Z,13.64
2023-05-15T01:59:07.977Z,13.65
2023-05-15T01:59:37.985Z,13.67
2023-05-15T02:00:07.994Z,13.69
2023-05-15T02:00:37.980Z,13.73
2023-05-15T02:01:07.986Z,13.76
2023-05-15T02:01:38.023Z,13.78
2023-05-15T02:02:08.103Z,13.81
2023-05-15T02:02:38.107Z,13.83
2023-05-15T02:03:08.122Z,13.86
2023-05-15T02:03:38.058Z,13.9
2023-05-15T02:04:07.980Z,13.95
2023-05-15T02:04:37.996Z,13.98
2023-05-15T02:05:07.995Z,14
2023-05-15T02:05:37.990Z,14.02
2023-05-15T02:06:07.984Z,14.05
2023-05-15T02:06:37.984Z,14.06
2023-05-15T02:07:07.977Z,14.07
2023-05-15T02:07:37.984Z,14.08
2023-05-15T02:08:07.982Z,14.1
2023-05-15T02:08:37.987Z,14.1
2023-05-15T02:09:07.985Z,14.1
2023-05-15T02:09:37.996Z,14.07
2023-05-15T02:10:07.989Z,14.05
2023-05-15T02:10:37.985Z,14.05
2023-05-15T02:11:07.987Z,14.08
2023-05-15T02:11:37.984Z,14.1
2023-05-15T02:12:07.982Z,14.12
2023-05-15T02:12:37.985Z,14.11
2023-05-15T02:13:07.981Z,14.09
2023-05-15T02:13:37.984Z,14.06
2023-05-15T02:14:07.978Z,14.06
2023-05-15T02:14:37.986Z,14.05
2023-05-15T02:15:07.988Z,14.06
2023-05-15T02:15:37.987Z,14.1
2023-05-15T02:16:08.041Z,14.12
2023-05-15T02:16:38.023Z,14.14
2023-05-15T02:17:08.003Z,14.14
2023-05-15T02:17:38.020Z,14.13
2023-05-15T02:18:07.983Z,14.14
2023-05-15T02:18:38.102Z,14.17
2023-05-15T02:19:08.001Z,14.18
2023-05-15T02:19:37.987Z,14.18
2023-05-15T02:20:07.985Z,14.17
2023-05-15T02:20:37.983Z,14.16
2023-05-15T02:21:07.982Z,14.14
2023-05-15T02:21:37.989Z,14.14
2023-05-15T02:22:07.992Z,14.16
2023-05-15T02:22:38.001Z,14.2
2023-05-15T02:23:07.990Z,14.24
2023-05-15T02:23:37.985Z,14.3
2023-05-15T02:24:08.020Z,14.35
2023-05-15T02:24:37.987Z,14.39
2023-05-15T02:25:08.015Z,14.41
2023-05-15T02:25:37.983Z,14.45
2023-05-15T02:26:08.003Z,14.46
2023-05-15T02:26:37.993Z,14.45
2023-05-15T02:27:07.984Z,14.45
2023-05-15T02:27:37.987Z,14.46
2023-05-15T02:28:07.990Z,14.48
2023-05-15T02:28:37.983Z,14.51
2023-05-15T02:29:07.995Z,14.54
2023-05-15T02:29:37.983Z,14.56
2023-05-15T02:30:07.985Z,14.55
2023-05-15T02:30:37.993Z,14.55
2023-05-15T02:31:07.993Z,14.56
2023-05-15T02:31:38.046Z,14.58
2023-05-15T02:32:08.043Z,14.58
2023-05-15T02:32:38.034Z,14.6
2023-05-15T02:33:08.076Z,14.64
2023-05-15T02:33:37.989Z,14.66
2023-05-15T02:34:07.998Z,14.7
2023-05-15T02:34:37.995Z,14.72
2023-05-15T02:35:08.001Z,14.78
2023-05-15T02:35:37.988Z,14.79
2023-05-15T02:36:08.001Z,14.82
2023-05-15T02:36:37.987Z,14.85
2023-05-15T02:37:07.996Z,14.9
2023-05-15T02:37:37.990Z,14.94
2023-05-15T02:38:07.990Z,14.98
2023-05-15T02:38:37.992Z,15
2023-05-15T02:39:07.992Z,15.03
2023-05-15T02:39:37.983Z,15.04
2023-05-15T02:40:08.005Z,15.09
2023-05-15T02:40:37.989Z,15.13
2023-05-15T02:41:07.990Z,15.15
2023-05-15T02:41:37.994Z,15.16
2023-05-15T02:42:08.000Z,15.21
2023-05-15T02:42:37.985Z,15.24
2023-05-15T02:43:08.001Z,15.24
2023-05-15T02:43:38.008Z,15.24
2023-05-15T02:44:07.987Z,15.24
2023-05-15T02:44:38.000Z,15.22
2023-05-15T02:45:08.000Z,15.22
2023-05-15T02:45:38.044Z,15.22
2023-05-15T02:46:08.027Z,15.23
2023-05-15T02:46:37.996Z,15.19
2023-05-15T02:47:07.991Z,15.18
2023-05-15T02:47:38.013Z,15.19
2023-05-15T02:48:08.096Z,15.24
2023-05-15T02:48:37.996Z,15.29
2023-05-15T02:49:07.989Z,15.31
2023-05-15T02:49:38.010Z,15.34
2023-05-15T02:50:08.000Z,15.36
2023-05-15T02:50:38.000Z,15.39
2023-05-15T02:51:07.991Z,15.44
2023-05-15T02:51:37.998Z,15.48
2023-05-15T02:52:08.000Z,15.52
2023-05-15T02:52:37.987Z,15.55
2023-05-15T02:53:07.987Z,15.57
2023-05-15T02:53:37.999Z,15.61
2023-05-15T02:54:07.997Z,15.62
2023-05-15T02:54:37.994Z,15.62
2023-05-15T02:55:07.989Z,15.64
2023-05-15T02:55:37.997Z,15.64
2023-05-15T02:56:07.985Z,15.67
2023-05-15T02:56:37.992Z,15.67
2023-05-15T02:57:07.990Z,15.69
2023-05-15T02:57:38.016Z,15.66
2023-05-15T02:58:07.991Z,15.66
2023-05-15T02:58:37.995Z,15.69
2023-05-15T02:59:07.989Z,15.76
2023-05-15T02:59:37.988Z,15.84
2023-05-15T03:00:07.988Z,15.91
2023-05-15T03:00:37.996Z,15.95
2023-05-15T03:01:08.026Z,15.98
2023-05-15T03:01:38.165Z,16.01
2023-05-15T03:02:07.990Z,16.03
2023-05-15T03:02:38.024Z,16.03
2023-05-15T03:03:07.998Z,16
2023-05-15T03:03:38.003Z,15.97
2023-05-15T03:04:08.031Z,15.94
2023-05-15T03:04:38.078Z,15.93
2023-05-15T03:05:07.995Z,15.94
2023-05-15T03:05:38.003Z,15.94
2023-05-15T03:06:07.993Z,15.96
2023-05-15T03:06:38.002Z,15.96
2023-05-15T03:07:07.992Z,15.97
2023-05-15T03:07:37.993Z,15.97
2023-05-15T03:08:07.995Z,15.98
2023-05-15T03:08:38.005Z,16.01
2023-05-15T03:09:08.016Z,16.02
2023-05-15T03:09:37.991Z,16.03
2023-05-15T03:10:08.008Z,16.04
2023-05-15T03:10:37.996Z,16.06
2023-05-15T03:11:08.012Z,16.07
2023-05-15T03:11:38.003Z,16.04
2023-05-15T03:12:08.004Z,15.99
2023-05-15T03:12:37.994Z,15.98
2023-05-15T03:13:08.007Z,15.96
2023-05-15T03:13:37.990Z,16
2023-05-15T03:14:08.020Z,16.04
2023-05-15T03:14:38.002Z,16.11
2023-05-15T03:15:08.031Z,16.2
2023-05-15T03:15:37.997Z,16.27
2023-05-15T03:16:08.002Z,16.31
2023-05-15T03:16:38.088Z,16.34
2023-05-15T03:17:08.101Z,16.36
2023-05-15T03:17:38.003Z,16.39
2023-05-15T03:18:08.016Z,16.47
2023-05-15T03:18:38.087Z,16.58
2023-05-15T03:19:08.054Z,16.67
2023-05-15T03:19:38.002Z,16.73
2023-05-15T03:20:08.005Z,16.82
2023-05-15T03:20:38.012Z,16.91
2023-05-15T03:21:07.995Z,16.95
2023-05-15T03:21:37.998Z,16.96
2023-05-15T03:22:07.996Z,17
2023-05-15T03:22:37.994Z,17
2023-05-15T03:23:07.994Z,16.97
2023-05-15T03:23:38.270Z,16.91
2023-05-15T03:24:08.010Z,16.85
2023-05-15T03:24:37.994Z,16.82
2023-05-15T03:25:08.012Z,16.76
2023-05-15T03:25:37.990Z,16.75
2023-05-15T03:26:07.995Z,16.77
2023-05-15T03:26:38.000Z,16.87
2023-05-15T03:27:08.007Z,17.11
2023-05-15T03:27:38.006Z,17.6
2023-05-15T03:28:08.001Z,18.34
2023-05-15T03:28:37.993Z,19.35
2023-05-15T03:29:08.002Z,20.48
2023-05-15T03:29:37.996Z,21.74
2023-05-15T03:30:08.001Z,22.89
2023-05-15T03:30:37.997Z,24.07
2023-05-15T03:31:08.014Z,25.08
2023-05-15T03:31:38.023Z,26
2023-05-15T03:32:07.994Z,26.74
2023-05-15T03:32:38.041Z,27.32
2023-05-15T03:33:08.063Z,27.79
2023-05-15T03:33:37.999Z,28.3
2023-05-15T03:34:08.002Z,28.94
2023-05-15T03:34:40.330Z,29.67
2023-05-15T03:35:09.032Z,30.41
2023-05-15T03:35:37.998Z,31.06
2023-05-15T03:36:08.002Z,31.48
2023-05-15T03:36:37.995Z,31.72
2023-05-15T03:37:08.009Z,32.1
2023-05-15T03:37:38.002Z,32.51
2023-05-15T03:38:08.006Z,32.94
2023-05-15T03:38:38.007Z,33.26
2023-05-15T03:39:08.014Z,33.71
2023-05-15T03:39:37.996Z,34.1
2023-05-15T03:40:07.999Z,34.53
2023-05-15T03:40:38.004Z,34.85
2023-05-15T03:41:08.008Z,34.83
2023-05-15T03:41:38.002Z,34.77
2023-05-15T03:42:08.030Z,34.75
2023-05-15T03:42:38.004Z,34.76
2023-05-15T03:43:07.998Z,35.04
2023-05-15T03:43:38.006Z,35.55
2023-05-15T03:44:08.005Z,35.9
2023-05-15T03:44:38.005Z,36.25
2023-05-15T03:45:08.002Z,36.61
2023-05-15T03:45:38.000Z,36.92
2023-05-15T03:46:08.064Z,37.11
2023-05-15T03:46:38.050Z,37.35
2023-05-15T03:47:08.016Z,37.49
2023-05-15T03:47:38.020Z,37.64
2023-05-15T03:48:08.167Z,37.75
2023-05-15T03:48:38.002Z,38.04
2023-05-15T03:49:08.013Z,38.47
2023-05-15T03:49:38.009Z,38.92
2023-05-15T03:50:08.019Z,39.23
2023-05-15T03:50:38.002Z,39.55
2023-05-15T03:51:08.004Z,39.84
2023-05-15T03:51:38.013Z,39.83
2023-05-15T03:52:08.005Z,39.76
2023-05-15T03:52:40.089Z,39.85
2023-05-15T03:53:09.041Z,40.11
2023-05-15T03:53:38.014Z,40.38
2023-05-15T03:54:08.015Z,40.64
2023-05-15T03:54:38.018Z,41.02
2023-05-15T03:55:08.010Z,41.02
2023-05-15T03:55:38.009Z,41.1
2023-05-15T03:56:08.013Z,41.26
2023-05-15T03:56:38.023Z,41.45
2023-05-15T03:57:08.006Z,41.47
2023-05-15T03:57:38.011Z,41.18
2023-05-15T03:58:08.009Z,40.73
2023-05-15T03:58:38.016Z,40.16
2023-05-15T03:59:08.031Z,39.7
2023-05-15T03:59:38.007Z,39.53
2023-05-15T04:00:08.013Z,39.67
2023-05-15T04:00:38.020Z,39.89
2023-05-15T04:01:08.048Z,40.27
2023-05-15T04:01:47.522Z,40.63
2023-05-15T04:02:09.165Z,40.63
2023-05-15T04:02:38.265Z,40.64
2023-05-15T04:03:08.184Z,40.53
2023-05-15T04:03:38.092Z,40.57
2023-05-15T04:04:08.021Z,40.69
2023-05-15T04:04:38.154Z,40.72
2023-05-15T04:05:08.049Z,40.59
2023-05-15T04:05:38.093Z,40.47
2023-05-15T04:06:08.014Z,40.51
2023-05-15T04:06:38.020Z,40.76
2023-05-15T04:07:08.008Z,41.08
2023-05-15T04:07:38.031Z,41.13
2023-05-15T04:08:08.013Z,40.94
2023-05-15T04:08:39.222Z,40.66
2023-05-15T04:09:08.018Z,40.57
2023-05-15T04:09:38.024Z,40.69
2023-05-15T04:10:08.027Z,40.73
2023-05-15T04:10:38.031Z,40.9
2023-05-15T04:11:08.011Z,40.48
2023-05-15T04:11:38.016Z,39.94
2023-05-15T04:12:08.016Z,39.85
2023-05-15T04:12:38.020Z,39.96
2023-05-15T04:13:08.019Z,39.94
2023-05-15T04:13:38.018Z,39.87
2023-05-15T04:14:08.021Z,39.99
2023-05-15T04:14:38.065Z,40.38
2023-05-15T04:15:08.016Z,40.5
2023-05-15T04:15:38.038Z,40.2
2023-05-15T04:16:08.118Z,39.91
2023-05-15T04:16:38.052Z,39.7
2023-05-15T04:17:08.012Z,39.5
2023-05-15T04:17:38.060Z,39.18
2023-05-15T04:18:08.026Z,38.83
2023-05-15T04:18:38.075Z,38.35
2023-05-15T04:19:08.050Z,38.27
2023-05-15T04:19:38.020Z,38.3
2023-05-15T04:20:08.028Z,38.33
2023-05-15T04:20:38.035Z,38.4
2023-05-15T04:21:08.025Z,38.62
2023-05-15T04:21:38.037Z,38.86
2023-05-15T04:22:08.041Z,39.07
2023-05-15T04:22:38.060Z,39.01
2023-05-15T04:23:08.020Z,38.89
2023-05-15T04:23:38.027Z,38.98
2023-05-15T04:24:08.024Z,39.1
2023-05-15T04:24:38.025Z,39.21
2023-05-15T04:25:08.024Z,39.39
2023-05-15T04:25:38.028Z,39.23
2023-05-15T04:26:08.016Z,39.21
2023-05-15T04:26:38.089Z,38.91
2023-05-15T04:27:08.163Z,38.73
2023-05-15T04:27:38.014Z,38.39
2023-05-15T04:28:08.029Z,38.49
2023-05-15T04:28:38.020Z,38.5
2023-05-15T04:29:08.024Z,38.7
2023-05-15T04:29:38.035Z,39.14
2023-05-15T04:30:08.031Z,39.55
2023-05-15T04:30:38.014Z,40.03
2023-05-15T04:31:08.024Z,40.44
2023-05-15T04:31:38.049Z,40.66
2023-05-15T04:32:08.120Z,40.57
2023-05-15T04:32:38.065Z,40.43
2023-05-15T04:33:08.148Z,40.26
2023-05-15T04:33:38.017Z,40.1
2023-05-15T04:34:08.028Z,40.19
2023-05-15T04:34:38.026Z,40.06
2023-05-15T04:35:08.025Z,40
2023-05-15T04:35:38.042Z,39.97
2023-05-15T04:36:08.025Z,40.04
2023-05-15T04:36:38.560Z,40.31
2023-05-15T04:37:08.018Z,40.67
2023-05-15T04:37:38.023Z,41.08
2023-05-15T04:38:08.026Z,41.3
2023-05-15T04:38:38.021Z,41.35
2023-05-15T04:39:08.021Z,41.28
2023-05-15T04:39:38.025Z,41.32
2023-05-15T04:40:08.131Z,41.4
2023-05-15T04:40:38.026Z,41.55
2023-05-15T04:41:08.032Z,41.27
2023-05-15T04:41:38.020Z,41.04
2023-05-15T04:42:08.040Z,41.01
2023-05-15T04:42:39.480Z,41.04
2023-05-15T04:43:08.023Z,40.93
2023-05-15T04:43:39.340Z,40.7
2023-05-15T04:44:08.024Z,40.54
2023-05-15T04:44:38.023Z,40.4
2023-05-15T04:45:08.103Z,40.23
2023-05-15T04:45:38.029Z,40.15
2023-05-15T04:46:08.076Z,40
2023-05-15T04:46:38.038Z,40.13
2023-05-15T04:47:08.024Z,40.4
2023-05-15T04:47:38.129Z,40.81
2023-05-15T04:48:08.098Z,41.1
2023-05-15T04:48:38.023Z,41.41
2023-05-15T04:49:08.032Z,41.83
2023-05-15T04:49:38.027Z,42.11
2023-05-15T04:50:08.024Z,42.18
2023-05-15T04:50:38.038Z,42.08
2023-05-15T04:51:08.029Z,41.98
2023-05-15T04:51:38.035Z,41.8
2023-05-15T04:52:08.041Z,41.73
2023-05-15T04:52:38.033Z,41.61
2023-05-15T04:53:08.024Z,41.54
2023-05-15T04:53:38.037Z,41.57
2023-05-15T04:54:08.030Z,41.27
2023-05-15T04:54:38.043Z,40.91
2023-05-15T04:55:08.036Z,40.44
2023-05-15T04:55:38.042Z,39.93
2023-05-15T04:56:08.035Z,39.43
2023-05-15T04:56:38.028Z,38.79
2023-05-15T04:57:08.027Z,38.29
2023-05-15T04:57:38.032Z,37.93
2023-05-15T04:58:08.028Z,37.55
2023-05-15T04:58:38.028Z,36.98
2023-05-15T04:59:08.031Z,36.18
2023-05-15T04:59:38.035Z,35.27
2023-05-15T05:00:08.036Z,34.6
2023-05-15T05:00:38.029Z,34.17
2023-05-15T05:01:08.128Z,33.87
2023-05-15T05:01:38.092Z,33.49
2023-05-15T05:02:08.037Z,33.18
2023-05-15T05:02:38.069Z,32.89
2023-05-15T05:03:08.115Z,32.59
2023-05-15T05:03:38.075Z,32.7
2023-05-15T05:04:08.097Z,33.24
2023-05-15T05:04:38.042Z,33.83
2023-05-15T05:05:08.042Z,34.35
2023-05-15T05:05:38.046Z,34.45
2023-05-15T05:06:08.034Z,34.3
2023-05-15T05:06:38.039Z,34.05
2023-05-15T05:07:08.066Z,33.72
2023-05-15T05:07:38.037Z,33.16
2023-05-15T05:08:08.034Z,32.58
2023-05-15T05:08:38.040Z,31.73
2023-05-15T05:09:08.045Z,30.86
2023-05-15T05:09:38.044Z,30.07
2023-05-15T05:10:08.047Z,29.31
2023-05-15T05:10:38.042Z,28.76
2023-05-15T05:11:08.034Z,28.45
2023-05-15T05:11:38.035Z,28.55
2023-05-15T05:12:08.039Z,29.06
2023-05-15T05:12:38.044Z,29.59
2023-05-15T05:13:08.050Z,30.09
2023-05-15T05:13:38.043Z,30.69
2023-05-15T05:14:08.036Z,31.2
2023-05-15T05:14:38.037Z,31.55
2023-05-15T05:15:08.045Z,31.68
2023-05-15T05:15:38.065Z,31.33
2023-05-15T05:16:08.094Z,30.91
2023-05-15T05:16:38.041Z,30.11
2023-05-15T05:17:08.074Z,29.3
2023-05-15T05:17:38.080Z,28.45
2023-05-15T05:18:08.087Z,27.78
2023-05-15T05:18:38.081Z,27.46
2023-05-15T05:19:08.088Z,27.43
2023-05-15T05:19:38.048Z,27.75
2023-05-15T05:20:10.538Z,28.55
2023-05-15T05:20:39.162Z,29.73
2023-05-15T05:21:08.038Z,31.02
2023-05-15T05:21:38.053Z,32.17
2023-05-15T05:22:08.048Z,33.27
2023-05-15T05:22:38.056Z,34.23
2023-05-15T05:23:08.050Z,35.16
2023-05-15T05:23:38.050Z,36.02
2023-05-15T05:24:08.046Z,37.04
2023-05-15T05:24:38.118Z,38.13
2023-05-15T05:25:08.053Z,38.99
2023-05-15T05:25:38.060Z,39.38
2023-05-15T05:26:08.054Z,39.5
2023-05-15T05:26:38.042Z,39.4
2023-05-15T05:27:08.070Z,39.37
2023-05-15T05:27:38.056Z,39.58
2023-05-15T05:28:08.049Z,39.87
2023-05-15T05:28:38.062Z,40
2023-05-15T05:29:08.047Z,39.93
2023-05-15T05:29:38.052Z,39.77
2023-05-15T05:30:08.050Z,39.33
2023-05-15T05:30:38.049Z,39.27
2023-05-15T05:31:08.109Z,39.16
2023-05-15T05:31:38.139Z,39.37
2023-05-15T05:32:08.048Z,39.34
2023-05-15T05:32:38.114Z,39.38
2023-05-15T05:33:08.133Z,39.61
2023-05-15T05:33:38.060Z,40.11
2023-05-15T05:34:08.056Z,40.6
2023-05-15T05:34:38.066Z,41.02
2023-05-15T05:35:08.050Z,41.4
2023-05-15T05:35:38.071Z,41.96
2023-05-15T05:36:08.054Z,42.64
2023-05-15T05:36:38.056Z,43.22
2023-05-15T05:37:08.050Z,43.26
2023-05-15T05:37:39.581Z,43
2023-05-15T05:38:08.997Z,43.01
2023-05-15T05:38:38.049Z,42.87
2023-05-15T05:39:08.068Z,42.74
2023-05-15T05:39:38.058Z,42.63
2023-05-15T05:40:08.060Z,42.44
2023-05-15T05:40:38.074Z,42.19
2023-05-15T05:41:08.075Z,42.21
2023-05-15T05:41:38.052Z,42.21
2023-05-15T05:42:08.051Z,42.1
2023-05-15T05:42:38.073Z,42.11
2023-05-15T05:43:08.057Z,42.2
2023-05-15T05:43:38.067Z,41.89
2023-05-15T05:44:08.054Z,40.85
2023-05-15T05:44:38.057Z,39.46
2023-05-15T05:45:08.062Z,37.9
2023-05-15T05:45:38.048Z,36.4
2023-05-15T05:46:08.086Z,34.83
2023-05-15T05:46:38.131Z,33.32
2023-05-15T05:47:08.200Z,31.91
2023-05-15T05:47:38.117Z,30.7
2023-05-15T05:48:08.105Z,29.61
2023-05-15T05:48:38.063Z,28.79
2023-05-15T05:49:08.052Z,28.09
2023-05-15T05:49:38.046Z,28
2023-05-15T05:50:08.050Z,28.96
2023-05-15T05:50:38.049Z,30.57
2023-05-15T05:51:08.051Z,32.26
2023-05-15T05:51:38.050Z,33.86
2023-05-15T05:52:08.081Z,34.96
2023-05-15T05:52:38.053Z,35.94
2023-05-15T05:53:08.056Z,37.17
2023-05-15T05:53:39.512Z,38.35
2023-05-15T05:54:08.058Z,38.64
2023-05-15T05:54:38.078Z,37.79
2023-05-15T05:55:08.057Z,36.41
2023-05-15T05:55:38.059Z,34.84
2023-05-15T05:56:08.063Z,33.23
2023-05-15T05:56:38.068Z,31.77
2023-05-15T05:57:08.073Z,30.5
2023-05-15T05:57:38.052Z,29.45
2023-05-15T05:58:14.760Z,28.52
2023-05-15T05:58:39.034Z,27.84
2023-05-15T05:59:08.059Z,27.31
2023-05-15T05:59:38.058Z,26.93
2023-05-15T06:00:08.057Z,26.61
2023-05-15T06:00:38.050Z,26.36
2023-05-15T06:01:08.058Z,26.15
2023-05-15T06:01:38.053Z,25.9
2023-05-15T06:02:08.120Z,25.58
2023-05-15T06:02:38.173Z,25.34
2023-05-15T06:03:08.203Z,25.25
2023-05-15T06:03:38.156Z,25.43
2023-05-15T06:04:08.147Z,25.93
2023-05-15T06:04:38.118Z,26.96
2023-05-15T06:05:08.087Z,28.39
2023-05-15T06:05:38.064Z,29.93
2023-05-15T06:06:08.054Z,31.82
2023-05-15T06:06:38.058Z,33.23
2023-05-15T06:07:08.056Z,33.92
2023-05-15T06:07:38.064Z,34.4
2023-05-15T06:08:08.081Z,34.74
2023-05-15T06:08:38.063Z,34.9
2023-05-15T06:09:08.061Z,34.58
2023-05-15T06:09:38.064Z,33.97
2023-05-15T06:10:08.073Z,33.22
2023-05-15T06:10:38.066Z,32.32
2023-05-15T06:11:08.071Z,31.58
2023-05-15T06:11:38.066Z,30.99
2023-05-15T06:12:08.078Z,30.53
2023-05-15T06:12:38.080Z,30.1
2023-05-15T06:13:08.066Z,29.72
2023-05-15T06:13:38.064Z,29.32
2023-05-15T06:14:08.060Z,28.88
2023-05-15T06:14:38.066Z,28.44
2023-05-15T06:15:08.068Z,28.08
2023-05-15T06:15:38.060Z,28.08
2023-05-15T06:16:08.062Z,28.84
2023-05-15T06:16:38.104Z,30.16
2023-05-15T06:17:08.273Z,31.38
2023-05-15T06:17:38.089Z,32.71
2023-05-15T06:18:08.193Z,33.85
2023-05-15T06:18:38.098Z,35.07
2023-05-15T06:19:08.175Z,36.14
2023-05-15T06:19:38.060Z,37.41
2023-05-15T06:20:08.072Z,38.44
2023-05-15T06:20:38.066Z,39.24
2023-05-15T06:21:08.075Z,40.01
2023-05-15T06:21:38.068Z,40.37
2023-05-15T06:22:08.074Z,40.98
2023-05-15T06:22:38.080Z,41.62
2023-05-15T06:23:08.068Z,41.59
2023-05-15T06:23:38.074Z,40.98
2023-05-15T06:24:08.066Z,39.78
2023-05-15T06:24:38.068Z,38.71
2023-05-15T06:25:08.132Z,37.82
2023-05-15T06:25:38.079Z,37.22
2023-05-15T06:26:08.071Z,36.57
2023-05-15T06:26:38.074Z,35.75
2023-05-15T06:27:08.082Z,34.93
2023-05-15T06:27:38.074Z,34.13
2023-05-15T06:28:08.065Z,33.19